Marshallville, Ohio
Current Conditions -  °F | °C
As of 1:29 AM on Tuesday 21 Oct 2014 (Local Time) from KBJJ Reporting Station
Haze Haze  
Wind Chill: 53°   Ceiling: 1200
Heat Index: 53°   Visibility: 4mi
Dew Point: 50°   Wind: 3mph
Humidity: 89%   Direction: 260°W
Pressure: 29.85"   Gusts: NA
Location:  40.9°N, 81.73°W
Report Text: KBJJ 210529Z AUTO 26003KT 4SM BR BKN012 OVC023 12/10 A2985 RMK AO2 T01170100 TSNO
Loading
Personal Weather Stations






























Interactive Weather Map
Tropical Storm Tracking
New forecast layout! Learn more

10-Day Weather Forecast

Advertisements
Track Severe Weather on mobile